sensor_id;sensor_type;location;lat;lon;timestamp;temperature;humidity
38183;DHT22;23991;52.430;10.586;2022-12-18T00:03:26;-3272.50;74.00
38183;DHT22;23991;52.430;10.586;2022-12-18T00:06:14;-3272.40;73.50
38183;DHT22;23991;52.430;10.586;2022-12-18T00:09:10;-3272.40;72.90
38183;DHT22;23991;52.430;10.586;2022-12-18T00:12:14;-3272.30;72.50
38183;DHT22;23991;52.430;10.586;2022-12-18T00:14:46;-3272.30;71.90
38183;DHT22;23991;52.430;10.586;2022-12-18T00:17:41;-3272.20;71.60
38183;DHT22;23991;52.430;10.586;2022-12-18T00:24:45;-3272.20;70.90
38183;DHT22;23991;52.430;10.586;2022-12-18T00:34:49;-3272.10;70.90
38183;DHT22;23991;52.430;10.586;2022-12-18T00:37:14;-3272.10;71.10
38183;DHT22;23991;52.430;10.586;2022-12-18T00:39:40;-3272.00;71.20
38183;DHT22;23991;52.430;10.586;2022-12-18T00:42:05;-3272.00;71.20
38183;DHT22;23991;52.430;10.586;2022-12-18T00:44:49;-3271.90;71.30
38183;DHT22;23991;52.430;10.586;2022-12-18T00:47:15;-3271.90;71.50
38183;DHT22;23991;52.430;10.586;2022-12-18T00:49:40;-3271.90;72.00
38183;DHT22;23991;52.430;10.586;2022-12-18T00:52:06;-3272.00;72.20
38183;DHT22;23991;52.430;10.586;2022-12-18T00:54:31;-3271.90;72.30
38183;DHT22;23991;52.430;10.586;2022-12-18T00:56:57;-3271.90;72.60
38183;DHT22;23991;52.430;10.586;2022-12-18T00:59:22;-3272.00;72.70
38183;DHT22;23991;52.430;10.586;2022-12-18T01:01:48;-3271.90;72.80
38183;DHT22;23991;52.430;10.586;2022-12-18T01:04:14;-3271.90;72.50
38183;DHT22;23991;52.430;10.586;2022-12-18T01:06:40;-3271.90;72.30
38183;DHT22;23991;52.430;10.586;2022-12-18T01:09:05;-3271.90;72.20
38183;DHT22;23991;52.430;10.586;2022-12-18T01:11:31;-3271.90;72.30
38183;DHT22;23991;52.430;10.586;2022-12-18T01:13:57;-3271.80;72.60
38183;DHT22;23991;52.430;10.586;2022-12-18T01:16:23;-3271.90;72.80
38183;DHT22;23991;52.430;10.586;2022-12-18T01:18:52;-3271.90;73.00
38183;DHT22;23991;52.430;10.586;2022-12-18T01:21:18;-3271.90;73.10
38183;DHT22;23991;52.430;10.586;2022-12-18T01:23:43;-3271.90;72.90
38183;DHT22;23991;52.430;10.586;2022-12-18T01:26:14;-3271.90;72.40
38183;DHT22;23991;52.430;10.586;2022-12-18T01:28:40;-3271.90;72.10
38183;DHT22;23991;52.430;10.586;2022-12-18T01:31:23;-3271.80;71.60
38183;DHT22;23991;52.430;10.586;2022-12-18T01:33:50;-3271.70;71.00
38183;DHT22;23991;52.430;10.586;2022-12-18T01:36:23;-3271.60;70.70
38183;DHT22;23991;52.430;10.586;2022-12-18T01:38:49;-3271.60;70.20
38183;DHT22;23991;52.430;10.586;2022-12-18T01:41:17;-3271.60;70.20
38183;DHT22;23991;52.430;10.586;2022-12-18T01:43:52;-3271.60;70.10
38183;DHT22;23991;52.430;10.586;2022-12-18T01:46:21;-3271.50;69.90
38183;DHT22;23991;52.430;10.586;2022-12-18T01:48:48;-3271.50;70.10
38183;DHT22;23991;52.430;10.586;2022-12-18T01:51:16;-3271.50;70.00
38183;DHT22;23991;52.430;10.586;2022-12-18T01:53:43;-3271.50;70.20
38183;DHT22;23991;52.430;10.586;2022-12-18T01:56:13;-3271.50;70.90
38183;DHT22;23991;52.430;10.586;2022-12-18T01:58:46;-3271.50;71.60
38183;DHT22;23991;52.430;10.586;2022-12-18T02:01:14;-3271.50;72.20
38183;DHT22;23991;52.430;10.586;2022-12-18T02:03:43;-3271.60;72.70
38183;DHT22;23991;52.430;10.586;2022-12-18T02:06:20;-3271.60;73.00
38183;DHT22;23991;52.430;10.586;2022-12-18T02:09:06;-3271.50;73.00
38183;DHT22;23991;52.430;10.586;2022-12-18T02:11:41;-3271.50;73.10
38183;DHT22;23991;52.430;10.586;2022-12-18T02:14:22;-3271.60;73.00
38183;DHT22;23991;52.430;10.586;2022-12-18T02:17:03;-3271.50;72.40
38183;DHT22;23991;52.430;10.586;2022-12-18T02:19:41;-3271.50;72.10
38183;DHT22;23991;52.430;10.586;2022-12-18T02:25:13;-3271.40;71.20
38183;DHT22;23991;52.430;10.586;2022-12-18T02:27:42;-3271.40;70.70
38183;DHT22;23991;52.430;10.586;2022-12-18T02:30:10;-3271.30;70.30
38183;DHT22;23991;52.430;10.586;2022-12-18T02:32:39;-3271.20;69.70
38183;DHT22;23991;52.430;10.586;2022-12-18T02:35:08;-3271.20;69.80
38183;DHT22;23991;52.430;10.586;2022-12-18T02:37:35;-3271.10;69.50
38183;DHT22;23991;52.430;10.586;2022-12-18T02:40:03;-3271.10;69.70
38183;DHT22;23991;52.430;10.586;2022-12-18T02:42:29;-3271.10;69.90
38183;DHT22;23991;52.430;10.586;2022-12-18T02:44:55;-3271.10;70.00
38183;DHT22;23991;52.430;10.586;2022-12-18T02:47:24;-3271.10;70.00
38183;DHT22;23991;52.430;10.586;2022-12-18T02:58:26;-3271.00;69.90
38183;DHT22;23991;52.430;10.586;2022-12-18T03:03:28;-3270.90;69.40
38183;DHT22;23991;52.430;10.586;2022-12-18T03:06:01;-3270.80;69.00
38183;DHT22;23991;52.430;10.586;2022-12-18T03:08:29;-3270.80;68.70
38183;DHT22;23991;52.430;10.586;2022-12-18T03:11:06;-3270.80;68.60
38183;DHT22;23991;52.430;10.586;2022-12-18T03:13:37;-3270.80;68.70
38183;DHT22;23991;52.430;10.586;2022-12-18T03:16:06;-3270.70;68.40
38183;DHT22;23991;52.430;10.586;2022-12-18T03:18:37;-3270.60;68.10
38183;DHT22;23991;52.430;10.586;2022-12-18T03:21:06;-3270.60;68.00
38183;DHT22;23991;52.430;10.586;2022-12-18T03:23:37;-3270.60;68.00
38183;DHT22;23991;52.430;10.586;2022-12-18T03:26:07;-3270.60;68.10
38183;DHT22;23991;52.430;10.586;2022-12-18T03:28:42;-3270.60;68.40
38183;DHT22;23991;52.430;10.586;2022-12-18T03:31:12;-3270.60;68.40
38183;DHT22;23991;52.430;10.586;2022-12-18T03:33:47;-3270.50;68.40
38183;DHT22;23991;52.430;10.586;2022-12-18T03:36:16;-3270.50;68.40
38183;DHT22;23991;52.430;10.586;2022-12-18T03:38:42;-3270.40;68.50
38183;DHT22;23991;52.430;10.586;2022-12-18T03:49:24;-3270.40;69.00
38183;DHT22;23991;52.430;10.586;2022-12-18T03:52:11;-3270.40;69.00
38183;DHT22;23991;52.430;10.586;2022-12-18T03:54:39;-3270.30;68.80
38183;DHT22;23991;52.430;10.586;2022-12-18T03:57:21;-3270.30;68.40
38183;DHT22;23991;52.430;10.586;2022-12-18T03:59:51;-3270.30;68.40
38183;DHT22;23991;52.430;10.586;2022-12-18T04:02:21;-3270.30;68.40
38183;DHT22;23991;52.430;10.586;2022-12-18T04:04:52;-3270.30;68.40
38183;DHT22;23991;52.430;10.586;2022-12-18T04:07:19;-3270.20;68.30
38183;DHT22;23991;52.430;10.586;2022-12-18T04:09:46;-3270.20;68.30
38183;DHT22;23991;52.430;10.586;2022-12-18T04:12:13;-3270.20;68.50
38183;DHT22;23991;52.430;10.586;2022-12-18T04:14:39;-3270.20;68.60
38183;DHT22;23991;52.430;10.586;2022-12-18T04:17:04;-3270.20;68.60
38183;DHT22;23991;52.430;10.586;2022-12-18T04:19:30;-3270.20;68.80
38183;DHT22;23991;52.430;10.586;2022-12-18T04:21:56;-3270.20;68.70
38183;DHT22;23991;52.430;10.586;2022-12-18T04:24:21;-3270.20;68.50
38183;DHT22;23991;52.430;10.586;2022-12-18T04:26:47;-3270.10;68.50
38183;DHT22;23991;52.430;10.586;2022-12-18T04:29:12;-3270.10;68.50
38183;DHT22;23991;52.430;10.586;2022-12-18T04:31:38;-3270.10;68.50
38183;DHT22;23991;52.430;10.586;2022-12-18T04:34:03;-3270.10;68.70
38183;DHT22;23991;52.430;10.586;2022-12-18T04:36:29;-3270.10;68.60
38183;DHT22;23991;52.430;10.586;2022-12-18T04:38:55;-3270.10;68.50
38183;DHT22;23991;52.430;10.586;2022-12-18T04:41:20;-3270.10;68.10
38183;DHT22;23991;52.430;10.586;2022-12-18T04:43:46;-3270.00;67.90
38183;DHT22;23991;52.430;10.586;2022-12-18T04:46:12;-3270.00;67.90
38183;DHT22;23991;52.430;10.586;2022-12-18T04:48:37;-3270.00;68.10
38183;DHT22;23991;52.430;10.586;2022-12-18T04:51:04;-3270.00;68.50
38183;DHT22;23991;52.430;10.586;2022-12-18T04:53:30;-3269.90;68.60
38183;DHT22;23991;52.430;10.586;2022-12-18T04:56:22;-3269.90;68.70
38183;DHT22;23991;52.430;10.586;2022-12-18T04:58:48;-3269.90;68.70
38183;DHT22;23991;52.430;10.586;2022-12-18T05:01:15;-3269.90;68.70
38183;DHT22;23991;52.430;10.586;2022-12-18T05:03:42;-3269.90;68.70
38183;DHT22;23991;52.430;10.586;2022-12-18T05:06:08;-3269.90;68.60
38183;DHT22;23991;52.430;10.586;2022-12-18T05:08:34;-3269.80;68.10
38183;DHT22;23991;52.430;10.586;2022-12-18T05:11:09;-3269.80;68.00
38183;DHT22;23991;52.430;10.586;2022-12-18T05:13:35;-3269.70;68.20
38183;DHT22;23991;52.430;10.586;2022-12-18T05:16:02;-3269.70;68.40
38183;DHT22;23991;52.430;10.586;2022-12-18T05:18:28;-3269.70;68.50
38183;DHT22;23991;52.430;10.586;2022-12-18T05:20:54;-3269.60;68.60
38183;DHT22;23991;52.430;10.586;2022-12-18T05:23:21;-3269.60;68.50
38183;DHT22;23991;52.430;10.586;2022-12-18T05:26:07;-3269.60;68.30
38183;DHT22;23991;52.430;10.586;2022-12-18T05:28:34;-3269.60;68.30
38183;DHT22;23991;52.430;10.586;2022-12-18T05:31:01;-3269.60;68.10
38183;DHT22;23991;52.430;10.586;2022-12-18T05:33:30;-3269.60;68.10
38183;DHT22;23991;52.430;10.586;2022-12-18T05:35:58;-3269.50;68.00
38183;DHT22;23991;52.430;10.586;2022-12-18T05:38:29;-3269.40;68.10
38183;DHT22;23991;52.430;10.586;2022-12-18T05:40:56;-3269.40;68.20
38183;DHT22;23991;52.430;10.586;2022-12-18T05:43:22;-3269.40;68.30
38183;DHT22;23991;52.430;10.586;2022-12-18T05:45:48;-3269.40;68.20
38183;DHT22;23991;52.430;10.586;2022-12-18T05:48:15;-3269.50;68.10
38183;DHT22;23991;52.430;10.586;2022-12-18T05:50:42;-3269.40;68.20
38183;DHT22;23991;52.430;10.586;2022-12-18T05:53:09;-3269.50;68.50
38183;DHT22;23991;52.430;10.586;2022-12-18T05:55:36;-3269.50;68.90
38183;DHT22;23991;52.430;10.586;2022-12-18T05:58:03;-3269.40;68.80
38183;DHT22;23991;52.430;10.586;2022-12-18T06:00:29;-3269.40;68.60
38183;DHT22;23991;52.430;10.586;2022-12-18T06:02:54;-3269.40;68.40
38183;DHT22;23991;52.430;10.586;2022-12-18T06:05:20;-3269.40;68.40
38183;DHT22;23991;52.430;10.586;2022-12-18T06:07:46;-3269.40;68.30
38183;DHT22;23991;52.430;10.586;2022-12-18T06:10:11;-3269.40;68.10
38183;DHT22;23991;52.430;10.586;2022-12-18T06:12:37;-3269.40;68.30
38183;DHT22;23991;52.430;10.586;2022-12-18T06:15:03;-3269.30;68.40
38183;DHT22;23991;52.430;10.586;2022-12-18T06:17:30;-3269.30;68.30
38183;DHT22;23991;52.430;10.586;2022-12-18T06:19:57;-3269.30;68.30
38183;DHT22;23991;52.430;10.586;2022-12-18T06:22:23;-3269.30;68.30
38183;DHT22;23991;52.430;10.586;2022-12-18T06:24:50;-3269.30;68.10
38183;DHT22;23991;52.430;10.586;2022-12-18T06:27:15;-3269.20;68.10
38183;DHT22;23991;52.430;10.586;2022-12-18T06:29:41;-3269.20;68.30
38183;DHT22;23991;52.430;10.586;2022-12-18T06:32:07;-3269.20;68.40
38183;DHT22;23991;52.430;10.586;2022-12-18T06:34:33;-3269.20;68.50
38183;DHT22;23991;52.430;10.586;2022-12-18T06:36:59;-3269.20;68.40
38183;DHT22;23991;52.430;10.586;2022-12-18T06:39:27;-3269.20;68.40
38183;DHT22;23991;52.430;10.586;2022-12-18T06:41:52;-3269.10;68.50
38183;DHT22;23991;52.430;10.586;2022-12-18T06:44:18;-3269.20;68.40
38183;DHT22;23991;52.430;10.586;2022-12-18T06:46:44;-3269.10;68.30
38183;DHT22;23991;52.430;10.586;2022-12-18T06:49:09;-3269.20;68.50
38183;DHT22;23991;52.430;10.586;2022-12-18T06:51:35;-3269.10;68.60
38183;DHT22;23991;52.430;10.586;2022-12-18T06:54:01;-3269.10;68.90
38183;DHT22;23991;52.430;10.586;2022-12-18T06:56:27;-3269.10;68.90
38183;DHT22;23991;52.430;10.586;2022-12-18T06:58:53;-3269.10;69.00
38183;DHT22;23991;52.430;10.586;2022-12-18T07:01:20;-3269.10;69.10
38183;DHT22;23991;52.430;10.586;2022-12-18T07:03:46;-3269.10;69.10
38183;DHT22;23991;52.430;10.586;2022-12-18T07:06:17;-3269.10;68.80
38183;DHT22;23991;52.430;10.586;2022-12-18T07:08:44;-3269.00;68.40
38183;DHT22;23991;52.430;10.586;2022-12-18T07:11:09;-3269.00;68.30
38183;DHT22;23991;52.430;10.586;2022-12-18T07:13:35;-3269.00;68.50
38183;DHT22;23991;52.430;10.586;2022-12-18T07:16:06;-3269.00;68.40
38183;DHT22;23991;52.430;10.586;2022-12-18T07:18:33;-3269.00;68.60
38183;DHT22;23991;52.430;10.586;2022-12-18T07:21:02;-3269.00;68.50
38183;DHT22;23991;52.430;10.586;2022-12-18T07:23:28;-3269.00;68.20
38183;DHT22;23991;52.430;10.586;2022-12-18T07:25:55;-3268.90;68.00
38183;DHT22;23991;52.430;10.586;2022-12-18T07:28:20;-3268.90;67.90
38183;DHT22;23991;52.430;10.586;2022-12-18T07:30:46;-3268.90;67.80
38183;DHT22;23991;52.430;10.586;2022-12-18T07:33:11;-3268.90;67.90
38183;DHT22;23991;52.430;10.586;2022-12-18T07:35:40;-3269.00;68.10
38183;DHT22;23991;52.430;10.586;2022-12-18T07:38:06;-3269.10;68.00
38183;DHT22;23991;52.430;10.586;2022-12-18T07:40:31;-3269.10;67.80
38183;DHT22;23991;52.430;10.586;2022-12-18T07:42:57;-3269.10;67.90
38183;DHT22;23991;52.430;10.586;2022-12-18T07:45:22;-3269.20;67.50
38183;DHT22;23991;52.430;10.586;2022-12-18T07:47:48;-3269.20;67.00
38183;DHT22;23991;52.430;10.586;2022-12-18T07:50:13;-3269.20;67.00
38183;DHT22;23991;52.430;10.586;2022-12-18T07:52:39;-3269.30;66.80
38183;DHT22;23991;52.430;10.586;2022-12-18T07:55:05;-3269.40;66.90
38183;DHT22;23991;52.430;10.586;2022-12-18T07:57:30;-3269.50;67.00
38183;DHT22;23991;52.430;10.586;2022-12-18T07:59:56;-3269.60;67.00
38183;DHT22;23991;52.430;10.586;2022-12-18T08:02:22;-3269.70;66.40
38183;DHT22;23991;52.430;10.586;2022-12-18T08:04:47;-3269.80;65.90
38183;DHT22;23991;52.430;10.586;2022-12-18T08:07:13;-3269.80;65.50
38183;DHT22;23991;52.430;10.586;2022-12-18T08:09:38;-3269.90;65.20
38183;DHT22;23991;52.430;10.586;2022-12-18T08:12:04;-3270.00;65.20
38183;DHT22;23991;52.430;10.586;2022-12-18T08:14:30;-3270.10;65.40
38183;DHT22;23991;52.430;10.586;2022-12-18T08:16:55;-3270.20;65.00
38183;DHT22;23991;52.430;10.586;2022-12-18T08:19:21;-3270.40;65.30
38183;DHT22;23991;52.430;10.586;2022-12-18T08:21:46;-3270.60;65.50
38183;DHT22;23991;52.430;10.586;2022-12-18T08:24:12;-3270.80;65.40
38183;DHT22;23991;52.430;10.586;2022-12-18T08:26:37;-3271.10;64.80
38183;DHT22;23991;52.430;10.586;2022-12-18T08:29:03;-3271.20;63.50
38183;DHT22;23991;52.430;10.586;2022-12-18T08:31:30;-3271.60;63.00
38183;DHT22;23991;52.430;10.586;2022-12-18T08:33:56;-3271.80;62.70
38183;DHT22;23991;52.430;10.586;2022-12-18T08:36:22;-3272.10;62.40
38183;DHT22;23991;52.430;10.586;2022-12-18T08:38:49;-3272.50;61.90
38183;DHT22;23991;52.430;10.586;2022-12-18T08:41:16;-3273.00;60.80
38183;DHT22;23991;52.430;10.586;2022-12-18T08:43:41;-3273.30;59.50
38183;DHT22;23991;52.430;10.586;2022-12-18T08:46:27;-3273.60;58.80
38183;DHT22;23991;52.430;10.586;2022-12-18T08:48:56;-3274.00;57.80
38183;DHT22;23991;52.430;10.586;2022-12-18T08:51:22;-3274.40;57.10
38183;DHT22;23991;52.430;10.586;2022-12-18T08:53:47;-3274.60;56.40
38183;DHT22;23991;52.430;10.586;2022-12-18T08:56:14;-3274.80;56.00
38183;DHT22;23991;52.430;10.586;2022-12-18T08:58:40;-3275.10;55.10
38183;DHT22;23991;52.430;10.586;2022-12-18T09:01:09;-3275.40;54.40
38183;DHT22;23991;52.430;10.586;2022-12-18T09:03:35;-3275.60;53.70
38183;DHT22;23991;52.430;10.586;2022-12-18T09:06:00;-3275.70;53.60
38183;DHT22;23991;52.430;10.586;2022-12-18T09:08:27;-3275.80;53.50
38183;DHT22;23991;52.430;10.586;2022-12-18T09:10:53;-3276.10;53.10
38183;DHT22;23991;52.430;10.586;2022-12-18T09:13:19;-3276.30;52.30
38183;DHT22;23991;52.430;10.586;2022-12-18T09:15:47;0.00;51.00
38183;DHT22;23991;52.430;10.586;2022-12-18T09:18:14;0.10;50.10
38183;DHT22;23991;52.430;10.586;2022-12-18T09:20:40;0.30;49.80
38183;DHT22;23991;52.430;10.586;2022-12-18T09:23:08;0.60;49.10
38183;DHT22;23991;52.430;10.586;2022-12-18T09:25:34;1.00;48.50
38183;DHT22;23991;52.430;10.586;2022-12-18T09:28:02;1.30;47.80
38183;DHT22;23991;52.430;10.586;2022-12-18T09:30:28;1.70;47.00
38183;DHT22;23991;52.430;10.586;2022-12-18T09:32:53;1.90;46.60
38183;DHT22;23991;52.430;10.586;2022-12-18T09:35:19;1.70;46.90
38183;DHT22;23991;52.430;10.586;2022-12-18T09:37:44;2.10;46.60
38183;DHT22;23991;52.430;10.586;2022-12-18T09:40:19;2.50;45.40
38183;DHT22;23991;52.430;10.586;2022-12-18T09:42:53;2.60;45.90
38183;DHT22;23991;52.430;10.586;2022-12-18T09:45:19;2.90;45.40
38183;DHT22;23991;52.430;10.586;2022-12-18T09:47:47;3.10;45.20
38183;DHT22;23991;52.430;10.586;2022-12-18T09:50:35;3.20;44.90
38183;DHT22;23991;52.430;10.586;2022-12-18T09:53:12;3.50;44.20
38183;DHT22;23991;52.430;10.586;2022-12-18T09:55:42;3.50;44.50
38183;DHT22;23991;52.430;10.586;2022-12-18T09:58:26;3.50;44.80
38183;DHT22;23991;52.430;10.586;2022-12-18T10:00:54;3.50;45.00
38183;DHT22;23991;52.430;10.586;2022-12-18T10:03:20;3.80;45.10
38183;DHT22;23991;52.430;10.586;2022-12-18T10:06:12;4.00;44.40
38183;DHT22;23991;52.430;10.586;2022-12-18T10:08:59;3.90;44.40
38183;DHT22;23991;52.430;10.586;2022-12-18T10:14:43;3.90;45.20
38183;DHT22;23991;52.430;10.586;2022-12-18T10:17:46;4.30;44.90
38183;DHT22;23991;52.430;10.586;2022-12-18T10:20:45;4.50;44.40
38183;DHT22;23991;52.430;10.586;2022-12-18T10:23:21;4.80;43.90
38183;DHT22;23991;52.430;10.586;2022-12-18T10:26:05;4.60;43.80
38183;DHT22;23991;52.430;10.586;2022-12-18T10:28:34;4.50;44.40
38183;DHT22;23991;52.430;10.586;2022-12-18T10:31:01;4.40;45.10
38183;DHT22;23991;52.430;10.586;2022-12-18T10:33:31;4.60;44.80
38183;DHT22;23991;52.430;10.586;2022-12-18T10:35:57;4.90;44.30
38183;DHT22;23991;52.430;10.586;2022-12-18T10:38:27;4.90;44.20
38183;DHT22;23991;52.430;10.586;2022-12-18T10:40:58;4.60;44.60
38183;DHT22;23991;52.430;10.586;2022-12-18T10:45:59;4.50;46.30
38183;DHT22;23991;52.430;10.586;2022-12-18T10:48:26;4.20;46.80
38183;DHT22;23991;52.430;10.586;2022-12-18T10:50:53;4.40;47.30
38183;DHT22;23991;52.430;10.586;2022-12-18T10:53:30;4.90;46.20
38183;DHT22;23991;52.430;10.586;2022-12-18T10:55:58;4.90;46.60
38183;DHT22;23991;52.430;10.586;2022-12-18T10:58:29;5.10;45.90
38183;DHT22;23991;52.430;10.586;2022-12-18T11:01:14;5.00;46.00
38183;DHT22;23991;52.430;10.586;2022-12-18T11:04:00;4.50;47.30
38183;DHT22;23991;52.430;10.586;2022-12-18T11:06:27;5.00;46.40
38183;DHT22;23991;52.430;10.586;2022-12-18T11:11:24;4.90;47.70
38183;DHT22;23991;52.430;10.586;2022-12-18T11:14:15;4.90;48.20
38183;DHT22;23991;52.430;10.586;2022-12-18T11:16:45;5.40;46.90
38183;DHT22;23991;52.430;10.586;2022-12-18T11:19:33;5.60;46.40
38183;DHT22;23991;52.430;10.586;2022-12-18T11:22:01;6.00;45.20
38183;DHT22;23991;52.430;10.586;2022-12-18T11:24:36;6.10;45.20
38183;DHT22;23991;52.430;10.586;2022-12-18T11:27:03;6.00;45.20
38183;DHT22;23991;52.430;10.586;2022-12-18T11:34:49;5.50;46.80
38183;DHT22;23991;52.430;10.586;2022-12-18T11:37:17;5.50;46.90
38183;DHT22;23991;52.430;10.586;2022-12-18T11:40:01;5.50;46.10
38183;DHT22;23991;52.430;10.586;2022-12-18T11:42:32;5.20;47.00
38183;DHT22;23991;52.430;10.586;2022-12-18T11:48:01;4.80;48.10
38183;DHT22;23991;52.430;10.586;2022-12-18T11:50:50;4.80;48.40
38183;DHT22;23991;52.430;10.586;2022-12-18T11:53:17;4.40;49.10
38183;DHT22;23991;52.430;10.586;2022-12-18T11:56:00;4.50;49.60
38183;DHT22;23991;52.430;10.586;2022-12-18T12:09:22;4.60;49.40
38183;DHT22;23991;52.430;10.586;2022-12-18T12:12:06;4.90;49.00
38183;DHT22;23991;52.430;10.586;2022-12-18T12:20:25;5.40;48.80
38183;DHT22;23991;52.430;10.586;2022-12-18T12:23:23;5.70;48.10
38183;DHT22;23991;52.430;10.586;2022-12-18T12:26:04;6.20;46.40
38183;DHT22;23991;52.430;10.586;2022-12-18T12:31:15;6.60;46.00
38183;DHT22;23991;52.430;10.586;2022-12-18T12:33:51;7.00;45.30
38183;DHT22;23991;52.430;10.586;2022-12-18T12:39:14;7.90;43.00
38183;DHT22;23991;52.430;10.586;2022-12-18T12:41:41;8.20;42.20
38183;DHT22;23991;52.430;10.586;2022-12-18T12:44:50;7.90;42.60
38183;DHT22;23991;52.430;10.586;2022-12-18T12:47:21;8.10;42.50
38183;DHT22;23991;52.430;10.586;2022-12-18T12:49:49;8.30;41.40
38183;DHT22;23991;52.430;10.586;2022-12-18T12:52:23;8.10;42.10
38183;DHT22;23991;52.430;10.586;2022-12-18T12:54:52;8.40;41.50
38183;DHT22;23991;52.430;10.586;2022-12-18T12:57:44;8.30;41.80
38183;DHT22;23991;52.430;10.586;2022-12-18T13:00:19;7.90;42.50
38183;DHT22;23991;52.430;10.586;2022-12-18T13:08:56;7.10;44.60
38183;DHT22;23991;52.430;10.586;2022-12-18T13:11:51;6.80;45.60
38183;DHT22;23991;52.430;10.586;2022-12-18T13:14:40;6.50;46.50
38183;DHT22;23991;52.430;10.586;2022-12-18T13:22:49;5.90;48.00
38183;DHT22;23991;52.430;10.586;2022-12-18T13:25:36;5.70;48.40
38183;DHT22;23991;52.430;10.586;2022-12-18T13:46:55;4.80;50.20
38183;DHT22;23991;52.430;10.586;2022-12-18T13:51:47;4.50;51.00
38183;DHT22;23991;52.430;10.586;2022-12-18T13:54:19;4.60;50.90
38183;DHT22;23991;52.430;10.586;2022-12-18T13:56:47;4.60;51.00
38183;DHT22;23991;52.430;10.586;2022-12-18T13:59:22;4.30;51.50
38183;DHT22;23991;52.430;10.586;2022-12-18T14:02:00;4.30;51.70
38183;DHT22;23991;52.430;10.586;2022-12-18T14:04:29;4.20;52.00
38183;DHT22;23991;52.430;10.586;2022-12-18T14:09:35;4.00;52.30
38183;DHT22;23991;52.430;10.586;2022-12-18T14:12:02;4.10;52.20
38183;DHT22;23991;52.430;10.586;2022-12-18T14:14:49;4.10;52.20
38183;DHT22;23991;52.430;10.586;2022-12-18T14:17:16;4.10;52.20
38183;DHT22;23991;52.430;10.586;2022-12-18T14:19:44;3.90;52.60
38183;DHT22;23991;52.430;10.586;2022-12-18T14:22:24;3.60;53.30
38183;DHT22;23991;52.430;10.586;2022-12-18T14:25:18;3.60;53.10
38183;DHT22;23991;52.430;10.586;2022-12-18T14:27:49;3.70;52.90
38183;DHT22;23991;52.430;10.586;2022-12-18T14:35:29;3.60;52.60
38183;DHT22;23991;52.430;10.586;2022-12-18T14:40:34;3.20;53.50
38183;DHT22;23991;52.430;10.586;2022-12-18T14:43:00;3.20;53.40
38183;DHT22;23991;52.430;10.586;2022-12-18T14:45:52;3.20;52.90
38183;DHT22;23991;52.430;10.586;2022-12-18T14:48:41;3.20;53.10
38183;DHT22;23991;52.430;10.586;2022-12-18T14:51:21;3.10;53.10
38183;DHT22;23991;52.430;10.586;2022-12-18T14:58:57;2.70;54.00
38183;DHT22;23991;52.430;10.586;2022-12-18T15:01:30;2.50;54.20
38183;DHT22;23991;52.430;10.586;2022-12-18T15:03:58;2.50;54.50
38183;DHT22;23991;52.430;10.586;2022-12-18T15:06:31;2.50;54.50
38183;DHT22;23991;52.430;10.586;2022-12-18T15:09:02;2.30;54.60
38183;DHT22;23991;52.430;10.586;2022-12-18T15:13:58;2.00;55.10
38183;DHT22;23991;52.430;10.586;2022-12-18T15:16:24;2.00;55.10
38183;DHT22;23991;52.430;10.586;2022-12-18T15:18:50;1.80;55.70
38183;DHT22;23991;52.430;10.586;2022-12-18T15:21:20;1.70;55.80
38183;DHT22;23991;52.430;10.586;2022-12-18T15:26:14;1.50;56.00
38183;DHT22;23991;52.430;10.586;2022-12-18T15:28:54;1.40;56.30
38183;DHT22;23991;52.430;10.586;2022-12-18T15:36:20;0.90;56.80
38183;DHT22;23991;52.430;10.586;2022-12-18T15:38:48;0.70;57.80
38183;DHT22;23991;52.430;10.586;2022-12-18T15:41:15;0.70;58.30
38183;DHT22;23991;52.430;10.586;2022-12-18T15:43:41;0.60;58.10
38183;DHT22;23991;52.430;10.586;2022-12-18T15:46:20;0.40;58.70
38183;DHT22;23991;52.430;10.586;2022-12-18T15:48:48;0.40;58.80
38183;DHT22;23991;52.430;10.586;2022-12-18T15:51:18;0.30;59.30
38183;DHT22;23991;52.430;10.586;2022-12-18T15:53:46;0.30;59.10
38183;DHT22;23991;52.430;10.586;2022-12-18T15:56:13;0.30;59.50
38183;DHT22;23991;52.430;10.586;2022-12-18T15:58:58;0.30;59.30
38183;DHT22;23991;52.430;10.586;2022-12-18T16:01:27;0.20;59.90
38183;DHT22;23991;52.430;10.586;2022-12-18T16:03:53;0.10;59.90
38183;DHT22;23991;52.430;10.586;2022-12-18T16:06:19;0.00;60.20
38183;DHT22;23991;52.430;10.586;2022-12-18T16:08:45;0.00;60.30
38183;DHT22;23991;52.430;10.586;2022-12-18T16:11:30;0.00;60.10
38183;DHT22;23991;52.430;10.586;2022-12-18T16:14:24;0.00;60.60
38183;DHT22;23991;52.430;10.586;2022-12-18T16:16:54;-3276.70;61.10
38183;DHT22;23991;52.430;10.586;2022-12-18T16:19:21;-3276.60;61.30
38183;DHT22;23991;52.430;10.586;2022-12-18T16:21:48;-3276.50;61.80
38183;DHT22;23991;52.430;10.586;2022-12-18T16:24:22;-3276.50;61.70
38183;DHT22;23991;52.430;10.586;2022-12-18T16:26:49;-3276.40;62.00
38183;DHT22;23991;52.430;10.586;2022-12-18T16:29:17;-3276.40;62.30
38183;DHT22;23991;52.430;10.586;2022-12-18T16:31:43;-3276.40;62.70
38183;DHT22;23991;52.430;10.586;2022-12-18T16:36:44;-3276.30;62.80
38183;DHT22;23991;52.430;10.586;2022-12-18T16:39:10;-3276.30;62.90
38183;DHT22;23991;52.430;10.586;2022-12-18T16:41:36;-3276.30;62.80
38183;DHT22;23991;52.430;10.586;2022-12-18T16:44:04;-3276.30;63.10
38183;DHT22;23991;52.430;10.586;2022-12-18T16:46:33;-3276.10;63.20
38183;DHT22;23991;52.430;10.586;2022-12-18T16:48:59;-3276.10;63.80
38183;DHT22;23991;52.430;10.586;2022-12-18T16:51:26;-3276.00;64.00
38183;DHT22;23991;52.430;10.586;2022-12-18T16:53:53;-3276.00;64.20
38183;DHT22;23991;52.430;10.586;2022-12-18T17:03:06;-3275.80;64.70
38183;DHT22;23991;52.430;10.586;2022-12-18T17:05:32;-3275.90;65.10
38183;DHT22;23991;52.430;10.586;2022-12-18T17:08:00;-3275.90;65.10
38183;DHT22;23991;52.430;10.586;2022-12-18T17:10:26;-3275.90;65.10
38183;DHT22;23991;52.430;10.586;2022-12-18T17:19:38;-3275.70;66.50
38183;DHT22;23991;52.430;10.586;2022-12-18T17:22:04;-3275.70;66.50
38183;DHT22;23991;52.430;10.586;2022-12-18T17:24:30;-3275.80;66.50
38183;DHT22;23991;52.430;10.586;2022-12-18T17:26:59;-3275.70;66.70
38183;DHT22;23991;52.430;10.586;2022-12-18T17:29:25;-3275.70;66.70
38183;DHT22;23991;52.430;10.586;2022-12-18T17:31:52;-3275.60;67.00
38183;DHT22;23991;52.430;10.586;2022-12-18T17:34:18;-3275.60;67.30
38183;DHT22;23991;52.430;10.586;2022-12-18T17:36:49;-3275.60;67.50
38183;DHT22;23991;52.430;10.586;2022-12-18T17:39:21;-3275.60;67.50
38183;DHT22;23991;52.430;10.586;2022-12-18T17:41:48;-3275.50;67.80